sensor_id;sensor_type;location;lat;lon;timestamp;P1;durP1;ratioP1;P2;durP2;ratioP2
10452;SDS011;5274;51.992;8.518;2022-07-21T00:01:50;7.22;;;4.85;;
10452;SDS011;5274;51.992;8.518;2022-07-21T00:04:18;10.98;;;4.90;;
10452;SDS011;5274;51.992;8.518;2022-07-21T00:06:44;12.88;;;5.68;;
10452;SDS011;5274;51.992;8.518;2022-07-21T00:09:11;9.85;;;6.40;;
10452;SDS011;5274;51.992;8.518;2022-07-21T00:11:37;7.65;;;6.20;;
10452;SDS011;5274;51.992;8.518;2022-07-21T00:14:04;13.10;;;8.07;;
10452;SDS011;5274;51.992;8.518;2022-07-21T00:16:31;15.70;;;8.52;;
10452;SDS011;5274;51.992;8.518;2022-07-21T00:18:56;10.82;;;7.80;;
10452;SDS011;5274;51.992;8.518;2022-07-21T00:21:24;14.95;;;8.68;;
10452;SDS011;5274;51.992;8.518;2022-07-21T00:23:50;14.82;;;7.85;;
10452;SDS011;5274;51.992;8.518;2022-07-21T00:26:15;14.32;;;9.27;;
10452;SDS011;5274;51.992;8.518;2022-07-21T00:28:41;14.52;;;9.20;;
10452;SDS011;5274;51.992;8.518;2022-07-21T00:31:06;17.58;;;9.80;;
10452;SDS011;5274;51.992;8.518;2022-07-21T00:33:32;14.95;;;9.88;;
10452;SDS011;5274;51.992;8.518;2022-07-21T00:35:57;15.43;;;10.13;;
10452;SDS011;5274;51.992;8.518;2022-07-21T00:38:23;18.17;;;10.35;;
10452;SDS011;5274;51.992;8.518;2022-07-21T00:40:48;14.70;;;9.98;;
10452;SDS011;5274;51.992;8.518;2022-07-21T00:43:14;15.85;;;10.02;;
10452;SDS011;5274;51.992;8.518;2022-07-21T00:45:39;16.85;;;10.07;;
10452;SDS011;5274;51.992;8.518;2022-07-21T00:48:05;16.20;;;9.80;;
10452;SDS011;5274;51.992;8.518;2022-07-21T00:50:31;18.58;;;9.55;;
10452;SDS011;5274;51.992;8.518;2022-07-21T00:52:57;18.77;;;10.18;;
10452;SDS011;5274;51.992;8.518;2022-07-21T00:55:23;23.02;;;10.70;;
10452;SDS011;5274;51.992;8.518;2022-07-21T00:57:49;18.38;;;10.95;;
10452;SDS011;5274;51.992;8.518;2022-07-21T01:00:17;16.95;;;10.27;;
10452;SDS011;5274;51.992;8.518;2022-07-21T01:02:47;21.65;;;10.95;;
10452;SDS011;5274;51.992;8.518;2022-07-21T01:05:13;25.67;;;10.82;;
10452;SDS011;5274;51.992;8.518;2022-07-21T01:07:44;18.08;;;10.95;;
10452;SDS011;5274;51.992;8.518;2022-07-21T01:10:11;18.05;;;10.57;;
10452;SDS011;5274;51.992;8.518;2022-07-21T01:12:38;19.05;;;12.45;;
10452;SDS011;5274;51.992;8.518;2022-07-21T01:15:07;18.48;;;11.45;;
10452;SDS011;5274;51.992;8.518;2022-07-21T01:17:34;19.98;;;12.27;;
10452;SDS011;5274;51.992;8.518;2022-07-21T01:20:01;19.52;;;11.82;;
10452;SDS011;5274;51.992;8.518;2022-07-21T01:22:40;23.92;;;11.13;;
10452;SDS011;5274;51.992;8.518;2022-07-21T01:25:07;20.00;;;11.07;;
10452;SDS011;5274;51.992;8.518;2022-07-21T01:27:33;17.50;;;11.38;;
10452;SDS011;5274;51.992;8.518;2022-07-21T01:29:59;20.48;;;11.82;;
10452;SDS011;5274;51.992;8.518;2022-07-21T01:32:25;17.58;;;11.68;;
10452;SDS011;5274;51.992;8.518;2022-07-21T01:34:51;17.83;;;12.25;;
10452;SDS011;5274;51.992;8.518;2022-07-21T01:37:23;17.50;;;12.13;;
10452;SDS011;5274;51.992;8.518;2022-07-21T01:39:53;18.50;;;11.90;;
10452;SDS011;5274;51.992;8.518;2022-07-21T01:42:37;20.13;;;11.52;;
10452;SDS011;5274;51.992;8.518;2022-07-21T01:45:03;20.05;;;11.38;;
10452;SDS011;5274;51.992;8.518;2022-07-21T01:47:29;17.30;;;11.70;;
10452;SDS011;5274;51.992;8.518;2022-07-21T01:49:55;21.13;;;11.90;;
10452;SDS011;5274;51.992;8.518;2022-07-21T01:52:21;21.90;;;12.85;;
10452;SDS011;5274;51.992;8.518;2022-07-21T01:54:46;17.90;;;12.07;;
10452;SDS011;5274;51.992;8.518;2022-07-21T01:57:12;16.30;;;11.48;;
10452;SDS011;5274;51.992;8.518;2022-07-21T01:59:37;16.75;;;11.00;;
10452;SDS011;5274;51.992;8.518;2022-07-21T02:02:03;18.60;;;12.25;;
10452;SDS011;5274;51.992;8.518;2022-07-21T02:04:28;22.75;;;13.20;;
10452;SDS011;5274;51.992;8.518;2022-07-21T02:06:54;19.77;;;12.13;;
10452;SDS011;5274;51.992;8.518;2022-07-21T02:09:20;20.58;;;12.05;;
10452;SDS011;5274;51.992;8.518;2022-07-21T02:11:45;18.75;;;11.68;;
10452;SDS011;5274;51.992;8.518;2022-07-21T02:14:11;20.38;;;12.65;;
10452;SDS011;5274;51.992;8.518;2022-07-21T02:16:36;21.40;;;12.75;;
10452;SDS011;5274;51.992;8.518;2022-07-21T02:19:03;18.02;;;12.10;;
10452;SDS011;5274;51.992;8.518;2022-07-21T02:21:29;16.83;;;11.73;;
10452;SDS011;5274;51.992;8.518;2022-07-21T02:23:54;15.77;;;11.10;;
10452;SDS011;5274;51.992;8.518;2022-07-21T02:26:20;21.88;;;12.27;;
10452;SDS011;5274;51.992;8.518;2022-07-21T02:28:46;24.52;;;13.82;;
10452;SDS011;5274;51.992;8.518;2022-07-21T02:31:12;23.25;;;13.25;;
10452;SDS011;5274;51.992;8.518;2022-07-21T02:33:37;15.73;;;12.65;;
10452;SDS011;5274;51.992;8.518;2022-07-21T02:36:03;29.17;;;13.88;;
10452;SDS011;5274;51.992;8.518;2022-07-21T02:38:28;28.20;;;14.02;;
10452;SDS011;5274;51.992;8.518;2022-07-21T02:40:54;20.95;;;13.05;;
10452;SDS011;5274;51.992;8.518;2022-07-21T02:43:19;25.42;;;13.85;;
10452;SDS011;5274;51.992;8.518;2022-07-21T02:45:45;26.05;;;15.63;;
10452;SDS011;5274;51.992;8.518;2022-07-21T02:48:12;24.77;;;15.27;;
10452;SDS011;5274;51.992;8.518;2022-07-21T02:50:39;18.80;;;14.73;;
10452;SDS011;5274;51.992;8.518;2022-07-21T02:53:07;19.48;;;14.27;;
10452;SDS011;5274;51.992;8.518;2022-07-21T02:55:35;30.60;;;15.70;;
10452;SDS011;5274;51.992;8.518;2022-07-21T02:58:05;33.03;;;18.83;;
10452;SDS011;5274;51.992;8.518;2022-07-21T03:00:45;31.75;;;17.90;;
10452;SDS011;5274;51.992;8.518;2022-07-21T03:03:16;36.38;;;18.88;;
10452;SDS011;5274;51.992;8.518;2022-07-21T03:05:42;51.58;;;19.00;;
10452;SDS011;5274;51.992;8.518;2022-07-21T03:08:08;38.88;;;20.80;;
10452;SDS011;5274;51.992;8.518;2022-07-21T03:10:34;28.50;;;17.77;;
10452;SDS011;5274;51.992;8.518;2022-07-21T03:13:00;37.65;;;19.20;;
10452;SDS011;5274;51.992;8.518;2022-07-21T03:15:25;33.88;;;18.67;;
10452;SDS011;5274;51.992;8.518;2022-07-21T03:17:52;46.60;;;23.40;;
10452;SDS011;5274;51.992;8.518;2022-07-21T03:20:18;43.97;;;21.33;;
10452;SDS011;5274;51.992;8.518;2022-07-21T03:22:43;36.83;;;22.45;;
10452;SDS011;5274;51.992;8.518;2022-07-21T03:25:09;30.20;;;19.08;;
10452;SDS011;5274;51.992;8.518;2022-07-21T03:27:34;31.33;;;18.23;;
10452;SDS011;5274;51.992;8.518;2022-07-21T03:30:07;26.10;;;16.88;;
10452;SDS011;5274;51.992;8.518;2022-07-21T03:32:34;26.88;;;17.25;;
10452;SDS011;5274;51.992;8.518;2022-07-21T03:35:00;31.13;;;17.98;;
10452;SDS011;5274;51.992;8.518;2022-07-21T03:37:26;27.38;;;18.00;;
10452;SDS011;5274;51.992;8.518;2022-07-21T03:39:52;27.15;;;18.35;;
10452;SDS011;5274;51.992;8.518;2022-07-21T03:42:17;24.92;;;18.08;;
10452;SDS011;5274;51.992;8.518;2022-07-21T03:44:43;26.65;;;17.40;;
10452;SDS011;5274;51.992;8.518;2022-07-21T03:47:08;26.00;;;18.30;;
10452;SDS011;5274;51.992;8.518;2022-07-21T03:49:34;29.80;;;18.40;;
10452;SDS011;5274;51.992;8.518;2022-07-21T03:52:00;37.63;;;18.83;;
10452;SDS011;5274;51.992;8.518;2022-07-21T03:54:25;62.17;;;21.40;;
10452;SDS011;5274;51.992;8.518;2022-07-21T03:56:50;60.15;;;21.77;;
10452;SDS011;5274;51.992;8.518;2022-07-21T03:59:16;73.22;;;20.90;;
10452;SDS011;5274;51.992;8.518;2022-07-21T04:01:42;0.45;;;0.45;;
10452;SDS011;5274;51.992;8.518;2022-07-21T04:04:08;33.50;;;13.27;;
10452;SDS011;5274;51.992;8.518;2022-07-21T04:06:34;1.38;;;1.27;;
10452;SDS011;5274;51.992;8.518;2022-07-21T04:08:59;0.00;;;0.00;;
10452;SDS011;5274;51.992;8.518;2022-07-21T04:11:25;0.20;;;0.20;;
10452;SDS011;5274;51.992;8.518;2022-07-21T04:13:50;0.00;;;0.00;;
10452;SDS011;5274;51.992;8.518;2022-07-21T04:16:16;0.00;;;0.00;;
10452;SDS011;5274;51.992;8.518;2022-07-21T04:18:41;0.25;;;0.25;;
10452;SDS011;5274;51.992;8.518;2022-07-21T04:21:07;0.00;;;0.00;;
10452;SDS011;5274;51.992;8.518;2022-07-21T04:23:32;0.00;;;0.00;;
10452;SDS011;5274;51.992;8.518;2022-07-21T04:25:58;0.00;;;0.00;;
10452;SDS011;5274;51.992;8.518;2022-07-21T04:28:23;0.00;;;0.00;;
10452;SDS011;5274;51.992;8.518;2022-07-21T04:30:49;0.30;;;0.30;;
10452;SDS011;5274;51.992;8.518;2022-07-21T04:33:14;0.10;;;0.10;;
10452;SDS011;5274;51.992;8.518;2022-07-21T04:35:40;0.00;;;0.00;;
10452;SDS011;5274;51.992;8.518;2022-07-21T04:38:05;0.10;;;0.10;;
10452;SDS011;5274;51.992;8.518;2022-07-21T04:40:33;0.00;;;0.00;;
10452;SDS011;5274;51.992;8.518;2022-07-21T04:42:58;0.30;;;0.30;;
10452;SDS011;5274;51.992;8.518;2022-07-21T04:45:24;0.10;;;0.10;;
10452;SDS011;5274;51.992;8.518;2022-07-21T04:47:50;0.73;;;0.73;;
10452;SDS011;5274;51.992;8.518;2022-07-21T04:50:18;0.25;;;0.25;;
10452;SDS011;5274;51.992;8.518;2022-07-21T04:52:44;0.10;;;0.10;;
10452;SDS011;5274;51.992;8.518;2022-07-21T04:55:10;0.10;;;0.10;;
10452;SDS011;5274;51.992;8.518;2022-07-21T04:57:46;0.10;;;0.10;;
10452;SDS011;5274;51.992;8.518;2022-07-21T05:00:15;0.10;;;0.10;;
10452;SDS011;5274;51.992;8.518;2022-07-21T05:02:43;2.85;;;1.10;;
10452;SDS011;5274;51.992;8.518;2022-07-21T05:05:09;0.70;;;0.70;;
10452;SDS011;5274;51.992;8.518;2022-07-21T05:07:35;0.20;;;0.20;;
10452;SDS011;5274;51.992;8.518;2022-07-21T05:10:04;0.10;;;0.10;;
10452;SDS011;5274;51.992;8.518;2022-07-21T05:12:31;0.10;;;0.10;;
10452;SDS011;5274;51.992;8.518;2022-07-21T05:14:57;0.70;;;0.70;;
10452;SDS011;5274;51.992;8.518;2022-07-21T05:17:22;0.10;;;0.10;;
10452;SDS011;5274;51.992;8.518;2022-07-21T05:19:48;0.10;;;0.10;;
10452;SDS011;5274;51.992;8.518;2022-07-21T05:22:15;0.10;;;0.10;;
10452;SDS011;5274;51.992;8.518;2022-07-21T05:24:44;0.47;;;0.47;;
10452;SDS011;5274;51.992;8.518;2022-07-21T05:27:09;0.10;;;0.10;;
10452;SDS011;5274;51.992;8.518;2022-07-21T05:29:35;0.10;;;0.10;;
10452;SDS011;5274;51.992;8.518;2022-07-21T05:32:01;0.10;;;0.10;;
10452;SDS011;5274;51.992;8.518;2022-07-21T05:34:26;0.10;;;0.10;;
10452;SDS011;5274;51.992;8.518;2022-07-21T05:36:52;0.10;;;0.10;;
10452;SDS011;5274;51.992;8.518;2022-07-21T05:39:18;4.20;;;3.78;;
10452;SDS011;5274;51.992;8.518;2022-07-21T05:41:44;0.13;;;0.13;;
10452;SDS011;5274;51.992;8.518;2022-07-21T05:44:09;0.10;;;0.10;;
10452;SDS011;5274;51.992;8.518;2022-07-21T05:46:35;0.22;;;0.22;;
10452;SDS011;5274;51.992;8.518;2022-07-21T05:49:00;0.00;;;0.00;;
10452;SDS011;5274;51.992;8.518;2022-07-21T05:51:26;0.98;;;0.60;;
10452;SDS011;5274;51.992;8.518;2022-07-21T05:53:51;2.85;;;2.75;;
10452;SDS011;5274;51.992;8.518;2022-07-21T05:56:17;0.80;;;0.80;;
10452;SDS011;5274;51.992;8.518;2022-07-21T05:58:42;0.10;;;0.10;;
10452;SDS011;5274;51.992;8.518;2022-07-21T06:01:08;0.10;;;0.10;;
10452;SDS011;5274;51.992;8.518;2022-07-21T06:03:34;0.32;;;0.32;;
10452;SDS011;5274;51.992;8.518;2022-07-21T06:06:01;0.20;;;0.20;;
10452;SDS011;5274;51.992;8.518;2022-07-21T06:08:27;0.43;;;0.43;;
10452;SDS011;5274;51.992;8.518;2022-07-21T06:10:53;0.68;;;0.68;;
10452;SDS011;5274;51.992;8.518;2022-07-21T06:13:19;0.88;;;0.88;;
10452;SDS011;5274;51.992;8.518;2022-07-21T06:15:44;0.50;;;0.50;;
10452;SDS011;5274;51.992;8.518;2022-07-21T06:18:09;0.13;;;0.13;;
10452;SDS011;5274;51.992;8.518;2022-07-21T06:20:35;0.00;;;0.00;;
10452;SDS011;5274;51.992;8.518;2022-07-21T06:23:00;0.38;;;0.32;;
10452;SDS011;5274;51.992;8.518;2022-07-21T06:25:26;0.10;;;0.10;;
10452;SDS011;5274;51.992;8.518;2022-07-21T06:27:52;0.20;;;0.20;;
10452;SDS011;5274;51.992;8.518;2022-07-21T06:30:17;0.43;;;0.30;;
10452;SDS011;5274;51.992;8.518;2022-07-21T06:32:43;0.10;;;0.10;;
10452;SDS011;5274;51.992;8.518;2022-07-21T06:35:08;0.10;;;0.10;;
10452;SDS011;5274;51.992;8.518;2022-07-21T06:37:34;0.10;;;0.10;;
10452;SDS011;5274;51.992;8.518;2022-07-21T06:39:59;0.10;;;0.10;;
10452;SDS011;5274;51.992;8.518;2022-07-21T06:42:25;0.25;;;0.25;;
10452;SDS011;5274;51.992;8.518;2022-07-21T06:44:51;0.40;;;0.40;;
10452;SDS011;5274;51.992;8.518;2022-07-21T06:47:16;0.20;;;0.20;;
10452;SDS011;5274;51.992;8.518;2022-07-21T06:49:42;0.17;;;0.17;;
10452;SDS011;5274;51.992;8.518;2022-07-21T06:52:07;0.10;;;0.10;;
10452;SDS011;5274;51.992;8.518;2022-07-21T06:54:33;0.10;;;0.10;;
10452;SDS011;5274;51.992;8.518;2022-07-21T06:56:58;0.20;;;0.20;;
10452;SDS011;5274;51.992;8.518;2022-07-21T06:59:24;0.20;;;0.20;;
10452;SDS011;5274;51.992;8.518;2022-07-21T07:01:49;0.10;;;0.10;;
10452;SDS011;5274;51.992;8.518;2022-07-21T07:04:15;3.00;;;1.23;;
10452;SDS011;5274;51.992;8.518;2022-07-21T07:06:40;0.10;;;0.10;;
10452;SDS011;5274;51.992;8.518;2022-07-21T07:09:06;0.20;;;0.20;;
10452;SDS011;5274;51.992;8.518;2022-07-21T07:11:31;0.65;;;0.65;;
10452;SDS011;5274;51.992;8.518;2022-07-21T07:13:59;0.17;;;0.17;;
10452;SDS011;5274;51.992;8.518;2022-07-21T07:16:25;0.80;;;0.80;;
10452;SDS011;5274;51.992;8.518;2022-07-21T07:18:50;0.00;;;0.00;;
10452;SDS011;5274;51.992;8.518;2022-07-21T07:21:16;0.40;;;0.40;;
10452;SDS011;5274;51.992;8.518;2022-07-21T07:23:41;0.00;;;0.00;;
10452;SDS011;5274;51.992;8.518;2022-07-21T07:26:07;0.00;;;0.00;;
10452;SDS011;5274;51.992;8.518;2022-07-21T07:28:33;1.95;;;0.75;;
10452;SDS011;5274;51.992;8.518;2022-07-21T07:30:58;0.20;;;0.20;;
10452;SDS011;5274;51.992;8.518;2022-07-21T07:33:24;0.10;;;0.10;;
10452;SDS011;5274;51.992;8.518;2022-07-21T07:35:50;0.17;;;0.17;;
10452;SDS011;5274;51.992;8.518;2022-07-21T07:38:16;0.10;;;0.10;;
10452;SDS011;5274;51.992;8.518;2022-07-21T07:40:42;1.42;;;0.60;;
10452;SDS011;5274;51.992;8.518;2022-07-21T07:43:08;0.00;;;0.00;;
10452;SDS011;5274;51.992;8.518;2022-07-21T07:45:36;0.10;;;0.10;;
10452;SDS011;5274;51.992;8.518;2022-07-21T07:48:02;0.22;;;0.22;;
10452;SDS011;5274;51.992;8.518;2022-07-21T07:50:28;0.47;;;0.30;;
10452;SDS011;5274;51.992;8.518;2022-07-21T07:52:54;19.63;;;11.38;;
10452;SDS011;5274;51.992;8.518;2022-07-21T07:55:20;25.63;;;11.40;;
10452;SDS011;5274;51.992;8.518;2022-07-21T07:57:45;19.25;;;11.20;;
10452;SDS011;5274;51.992;8.518;2022-07-21T08:00:15;18.20;;;12.07;;
10452;SDS011;5274;51.992;8.518;2022-07-21T08:02:42;16.50;;;11.43;;
10452;SDS011;5274;51.992;8.518;2022-07-21T08:05:08;17.52;;;11.50;;
10452;SDS011;5274;51.992;8.518;2022-07-21T08:07:34;19.40;;;12.77;;
10452;SDS011;5274;51.992;8.518;2022-07-21T08:10:02;17.55;;;11.48;;
10452;SDS011;5274;51.992;8.518;2022-07-21T08:12:29;21.00;;;13.52;;
10452;SDS011;5274;51.992;8.518;2022-07-21T08:14:55;20.65;;;13.75;;
10452;SDS011;5274;51.992;8.518;2022-07-21T08:17:20;20.42;;;12.60;;
10452;SDS011;5274;51.992;8.518;2022-07-21T08:19:46;17.00;;;13.25;;
10452;SDS011;5274;51.992;8.518;2022-07-21T08:22:11;16.15;;;11.75;;
10452;SDS011;5274;51.992;8.518;2022-07-21T08:24:37;16.25;;;11.73;;
10452;SDS011;5274;51.992;8.518;2022-07-21T08:27:03;14.00;;;11.23;;
10452;SDS011;5274;51.992;8.518;2022-07-21T08:29:28;17.38;;;12.10;;
10452;SDS011;5274;51.992;8.518;2022-07-21T08:31:54;14.13;;;11.23;;
10452;SDS011;5274;51.992;8.518;2022-07-21T08:34:19;15.82;;;11.48;;
10452;SDS011;5274;51.992;8.518;2022-07-21T08:36:45;15.90;;;11.50;;
10452;SDS011;5274;51.992;8.518;2022-07-21T08:39:10;13.68;;;10.55;;
10452;SDS011;5274;51.992;8.518;2022-07-21T08:41:36;13.25;;;11.07;;
10452;SDS011;5274;51.992;8.518;2022-07-21T08:44:02;15.00;;;11.43;;
10452;SDS011;5274;51.992;8.518;2022-07-21T08:46:28;15.15;;;10.95;;
10452;SDS011;5274;51.992;8.518;2022-07-21T08:48:55;14.45;;;11.65;;
10452;SDS011;5274;51.992;8.518;2022-07-21T08:51:24;11.88;;;10.50;;
10452;SDS011;5274;51.992;8.518;2022-07-21T08:53:49;12.00;;;10.80;;
10452;SDS011;5274;51.992;8.518;2022-07-21T08:56:15;10.93;;;9.82;;
10452;SDS011;5274;51.992;8.518;2022-07-21T08:58:40;9.95;;;8.77;;
10452;SDS011;5274;51.992;8.518;2022-07-21T09:01:06;11.70;;;9.70;;
10452;SDS011;5274;51.992;8.518;2022-07-21T09:03:32;12.40;;;10.13;;
10452;SDS011;5274;51.992;8.518;2022-07-21T09:08:37;11.50;;;10.00;;
10452;SDS011;5274;51.992;8.518;2022-07-21T09:11:22;9.52;;;8.52;;
10452;SDS011;5274;51.992;8.518;2022-07-21T09:16:38;12.00;;;8.63;;
10452;SDS011;5274;51.992;8.518;2022-07-21T09:19:19;10.13;;;7.97;;
10452;SDS011;5274;51.992;8.518;2022-07-21T09:21:50;11.40;;;8.23;;
10452;SDS011;5274;51.992;8.518;2022-07-21T09:24:22;9.25;;;8.30;;
10452;SDS011;5274;51.992;8.518;2022-07-21T09:27:05;9.18;;;8.27;;
10452;SDS011;5274;51.992;8.518;2022-07-21T09:29:33;9.48;;;8.48;;
10452;SDS011;5274;51.992;8.518;2022-07-21T09:32:15;11.48;;;8.20;;
10452;SDS011;5274;51.992;8.518;2022-07-21T09:34:48;10.73;;;9.05;;
10452;SDS011;5274;51.992;8.518;2022-07-21T09:37:19;10.93;;;8.45;;
10452;SDS011;5274;51.992;8.518;2022-07-21T09:39:46;12.80;;;9.02;;
10452;SDS011;5274;51.992;8.518;2022-07-21T09:42:15;9.32;;;8.27;;
10452;SDS011;5274;51.992;8.518;2022-07-21T09:44:50;10.85;;;8.65;;
10452;SDS011;5274;51.992;8.518;2022-07-21T09:47:24;11.13;;;9.48;;
10452;SDS011;5274;51.992;8.518;2022-07-21T09:49:52;10.77;;;8.80;;
10452;SDS011;5274;51.992;8.518;2022-07-21T09:52:19;10.43;;;8.45;;
10452;SDS011;5274;51.992;8.518;2022-07-21T09:54:45;9.68;;;8.57;;
10452;SDS011;5274;51.992;8.518;2022-07-21T09:57:11;10.15;;;9.00;;
10452;SDS011;5274;51.992;8.518;2022-07-21T09:59:42;12.93;;;9.60;;
10452;SDS011;5274;51.992;8.518;2022-07-21T10:02:20;11.68;;;9.20;;
10452;SDS011;5274;51.992;8.518;2022-07-21T10:05:04;10.35;;;8.85;;
10452;SDS011;5274;51.992;8.518;2022-07-21T10:07:41;11.65;;;9.68;;
10452;SDS011;5274;51.992;8.518;2022-07-21T10:10:10;10.85;;;9.75;;
10452;SDS011;5274;51.992;8.518;2022-07-21T10:12:37;10.88;;;9.57;;
10452;SDS011;5274;51.992;8.518;2022-07-21T10:15:03;12.52;;;9.82;;
10452;SDS011;5274;51.992;8.518;2022-07-21T10:17:29;11.43;;;9.25;;
10452;SDS011;5274;51.992;8.518;2022-07-21T10:23:09;11.50;;;8.75;;
10452;SDS011;5274;51.992;8.518;2022-07-21T10:25:34;9.95;;;8.73;;
10452;SDS011;5274;51.992;8.518;2022-07-21T10:30:39;8.05;;;7.25;;
10452;SDS011;5274;51.992;8.518;2022-07-21T10:33:10;7.85;;;6.70;;
10452;SDS011;5274;51.992;8.518;2022-07-21T10:35:39;8.40;;;6.43;;
10452;SDS011;5274;51.992;8.518;2022-07-21T10:38:06;7.55;;;6.35;;
10452;SDS011;5274;51.992;8.518;2022-07-21T10:40:49;7.50;;;6.70;;
10452;SDS011;5274;51.992;8.518;2022-07-21T10:45:41;7.20;;;6.50;;
10452;SDS011;5274;51.992;8.518;2022-07-21T10:51:12;8.43;;;7.50;;
10452;SDS011;5274;51.992;8.518;2022-07-21T10:53:39;7.03;;;6.18;;
10452;SDS011;5274;51.992;8.518;2022-07-21T10:56:05;7.35;;;6.22;;
10452;SDS011;5274;51.992;8.518;2022-07-21T10:58:41;7.72;;;6.80;;
10452;SDS011;5274;51.992;8.518;2022-07-21T11:01:18;8.52;;;6.95;;
10452;SDS011;5274;51.992;8.518;2022-07-21T11:04:07;8.48;;;7.53;;
10452;SDS011;5274;51.992;8.518;2022-07-21T11:06:38;9.68;;;6.85;;
10452;SDS011;5274;51.992;8.518;2022-07-21T11:09:06;6.80;;;5.97;;
10452;SDS011;5274;51.992;8.518;2022-07-21T11:22:25;8.38;;;6.10;;
10452;SDS011;5274;51.992;8.518;2022-07-21T11:24:58;9.38;;;6.57;;
10452;SDS011;5274;51.992;8.518;2022-07-21T11:27:27;6.57;;;5.85;;
10452;SDS011;5274;51.992;8.518;2022-07-21T11:29:54;6.50;;;5.60;;
10452;SDS011;5274;51.992;8.518;2022-07-21T11:32:22;10.40;;;5.78;;
10452;SDS011;5274;51.992;8.518;2022-07-21T11:34:58;7.18;;;6.07;;
10452;SDS011;5274;51.992;8.518;2022-07-21T11:37:35;6.72;;;5.85;;
10452;SDS011;5274;51.992;8.518;2022-07-21T11:40:07;6.55;;;5.82;;
10452;SDS011;5274;51.992;8.518;2022-07-21T11:42:38;6.43;;;5.80;;
10452;SDS011;5274;51.992;8.518;2022-07-21T11:45:05;6.03;;;4.97;;
10452;SDS011;5274;51.992;8.518;2022-07-21T11:47:32;5.80;;;5.30;;
10452;SDS011;5274;51.992;8.518;2022-07-21T11:49:58;7.65;;;6.28;;
10452;SDS011;5274;51.992;8.518;2022-07-21T11:52:26;7.25;;;6.50;;
10452;SDS011;5274;51.992;8.518;2022-07-21T11:54:56;8.60;;;6.10;;
10452;SDS011;5274;51.992;8.518;2022-07-21T11:57:23;8.00;;;6.55;;
10452;SDS011;5274;51.992;8.518;2022-07-21T11:59:49;8.30;;;6.75;;
10452;SDS011;5274;51.992;8.518;2022-07-21T12:02:18;6.93;;;5.68;;
10452;SDS011;5274;51.992;8.518;2022-07-21T12:04:54;8.55;;;5.80;;
10452;SDS011;5274;51.992;8.518;2022-07-21T12:07:29;8.95;;;6.15;;
10452;SDS011;5274;51.992;8.518;2022-07-21T12:10:03;7.25;;;6.15;;
10452;SDS011;5274;51.992;8.518;2022-07-21T12:12:37;8.15;;;5.82;;
10452;SDS011;5274;51.992;8.518;2022-07-21T12:17:57;6.95;;;5.10;;
10452;SDS011;5274;51.992;8.518;2022-07-21T12:20:37;8.20;;;5.00;;
10452;SDS011;5274;51.992;8.518;2022-07-21T12:23:24;8.20;;;4.95;;
10452;SDS011;5274;51.992;8.518;2022-07-21T12:25:52;4.80;;;4.30;;
10452;SDS011;5274;51.992;8.518;2022-07-21T12:28:18;7.03;;;4.50;;
10452;SDS011;5274;51.992;8.518;2022-07-21T12:30:45;4.72;;;4.22;;
10452;SDS011;5274;51.992;8.518;2022-07-21T12:33:26;6.47;;;4.72;;
10452;SDS011;5274;51.992;8.518;2022-07-21T12:35:57;7.07;;;4.95;;
10452;SDS011;5274;51.992;8.518;2022-07-21T12:38:47;5.57;;;5.07;;
10452;SDS011;5274;51.992;8.518;2022-07-21T12:41:13;6.70;;;5.30;;
10452;SDS011;5274;51.992;8.518;2022-07-21T12:43:42;8.85;;;6.10;;
10452;SDS011;5274;51.992;8.518;2022-07-21T12:46:17;9.07;;;7.20;;
10452;SDS011;5274;51.992;8.518;2022-07-21T12:48:44;7.97;;;7.18;;
10452;SDS011;5274;51.992;8.518;2022-07-21T12:51:20;11.05;;;7.60;;
10452;SDS011;5274;51.992;8.518;2022-07-21T12:53:52;16.73;;;8.00;;
10452;SDS011;5274;51.992;8.518;2022-07-21T12:58:45;8.55;;;7.60;;
10452;SDS011;5274;51.992;8.518;2022-07-21T13:01:12;8.13;;;6.57;;
10452;SDS011;5274;51.992;8.518;2022-07-21T13:03:38;7.15;;;6.13;;
10452;SDS011;5274;51.992;8.518;2022-07-21T13:06:04;6.75;;;5.80;;
10452;SDS011;5274;51.992;8.518;2022-07-21T13:08:31;7.68;;;5.28;;
10452;SDS011;5274;51.992;8.518;2022-07-21T13:10:57;6.38;;;5.75;;
10452;SDS011;5274;51.992;8.518;2022-07-21T13:13:24;9.40;;;5.20;;
10452;SDS011;5274;51.992;8.518;2022-07-21T13:15:50;6.20;;;5.47;;
10452;SDS011;5274;51.992;8.518;2022-07-21T13:18:16;9.10;;;5.28;;
10452;SDS011;5274;51.992;8.518;2022-07-21T13:20:41;5.32;;;4.82;;
10452;SDS011;5274;51.992;8.518;2022-07-21T13:23:08;8.02;;;5.38;;
10452;SDS011;5274;51.992;8.518;2022-07-21T13:25:34;5.22;;;4.72;;
10452;SDS011;5274;51.992;8.518;2022-07-21T13:28:00;8.52;;;5.28;;
10452;SDS011;5274;51.992;8.518;2022-07-21T13:30:26;6.53;;;5.47;;
10452;SDS011;5274;51.992;8.518;2022-07-21T13:32:52;6.40;;;5.80;;
10452;SDS011;5274;51.992;8.518;2022-07-21T13:35:17;6.95;;;6.30;;
10452;SDS011;5274;51.992;8.518;2022-07-21T13:37:43;7.30;;;6.63;;
10452;SDS011;5274;51.992;8.518;2022-07-21T13:40:09;8.25;;;6.85;;
10452;SDS011;5274;51.992;8.518;2022-07-21T13:42:35;9.27;;;7.90;;
10452;SDS011;5274;51.992;8.518;2022-07-21T13:45:01;10.18;;;9.15;;
10452;SDS011;5274;51.992;8.518;2022-07-21T13:47:27;11.27;;;8.65;;
10452;SDS011;5274;51.992;8.518;2022-07-21T13:49:52;11.63;;;10.30;;
10452;SDS011;5274;51.992;8.518;2022-07-21T13:52:17;16.30;;;11.35;;
10452;SDS011;5274;51.992;8.518;2022-07-21T13:54:43;13.55;;;12.15;;
10452;SDS011;5274;51.992;8.518;2022-07-21T13:57:08;13.18;;;11.57;;
10452;SDS011;5274;51.992;8.518;2022-07-21T13:59:34;11.90;;;10.70;;
10452;SDS011;5274;51.992;8.518;2022-07-21T14:01:59;13.38;;;10.30;;
10452;SDS011;5274;51.992;8.518;2022-07-21T14:04:25;10.80;;;8.35;;
10452;SDS011;5274;51.992;8.518;2022-07-21T14:06:50;9.98;;;8.77;;
10452;SDS011;5274;51.992;8.518;2022-07-21T14:09:17;9.95;;;8.00;;
10452;SDS011;5274;51.992;8.518;2022-07-21T14:11:43;11.40;;;7.65;;
10452;SDS011;5274;51.992;8.518;2022-07-21T14:14:09;9.90;;;6.95;;
10452;SDS011;5274;51.992;8.518;2022-07-21T14:16:40;13.27;;;6.85;;
10452;SDS011;5274;51.992;8.518;2022-07-21T14:19:05;7.35;;;6.53;;
10452;SDS011;5274;51.992;8.518;2022-07-21T14:21:31;6.95;;;6.25;;
10452;SDS011;5274;51.992;8.518;2022-07-21T14:23:56;8.13;;;6.65;;
10452;SDS011;5274;51.992;8.518;2022-07-21T14:26:41;8.73;;;6.68;;
10452;SDS011;5274;51.992;8.518;2022-07-21T14:29:06;6.75;;;5.93;;
10452;SDS011;5274;51.992;8.518;2022-07-21T14:31:32;7.57;;;5.53;;
10452;SDS011;5274;51.992;8.518;2022-07-21T14:33:58;9.02;;;6.15;;
10452;SDS011;5274;51.992;8.518;2022-07-21T14:36:23;6.85;;;5.80;;
10452;SDS011;5274;51.992;8.518;2022-07-21T14:38:48;8.25;;;5.85;;
10452;SDS011;5274;51.992;8.518;2022-07-21T14:41:14;6.60;;;5.90;;
10452;SDS011;5274;51.992;8.518;2022-07-21T14:43:40;9.82;;;6.00;;
10452;SDS011;5274;51.992;8.518;2022-07-21T14:46:05;8.07;;;6.32;;
10452;SDS011;5274;51.992;8.518;2022-07-21T14:48:31;6.93;;;6.05;;
10452;SDS011;5274;51.992;8.518;2022-07-21T14:50:56;7.13;;;6.43;;
10452;SDS011;5274;51.992;8.518;2022-07-21T14:53:22;7.43;;;6.57;;
10452;SDS011;5274;51.992;8.518;2022-07-21T14:55:48;9.52;;;5.65;;
10452;SDS011;5274;51.992;8.518;2022-07-21T14:58:14;6.57;;;5.93;;
10452;SDS011;5274;51.992;8.518;2022-07-21T15:00:39;7.25;;;5.95;;
10452;SDS011;5274;51.992;8.518;2022-07-21T15:03:05;7.25;;;5.70;;
10452;SDS011;5274;51.992;8.518;2022-07-21T15:05:30;6.35;;;5.45;;
10452;SDS011;5274;51.992;8.518;2022-07-21T15:07:56;7.72;;;5.35;;
10452;SDS011;5274;51.992;8.518;2022-07-21T15:10:21;5.93;;;5.43;;
10452;SDS011;5274;51.992;8.518;2022-07-21T15:12:47;8.27;;;5.15;;
10452;SDS011;5274;51.992;8.518;2022-07-21T15:15:12;5.63;;;4.95;;
10452;SDS011;5274;51.992;8.518;2022-07-21T15:17:39;5.45;;;4.70;;
10452;SDS011;5274;51.992;8.518;2022-07-21T15:20:05;4.95;;;4.45;;
10452;SDS011;5274;51.992;8.518;2022-07-21T15:22:32;4.57;;;3.92;;
10452;SDS011;5274;51.992;8.518;2022-07-21T15:24:59;3.35;;;3.05;;